KEYW/EYW METAR and TAF weather

Enter ICAO airport designator
Station Type Date Time Source
KEYW METAR 2021/05/17 21:53 UTC NOAA

KEYW 172153Z 09015G20KT 10SM FEW030 28/20 A3003 RMK AO2 SLP169 T02780200


Station Type Date Time Source
KEYW Decoded METAR 2021/05/17 21:53 UTC NOAA

KEY WEST INTERNATIONAL AIRPORT , FL, United States (KEYW) 24-33N 81-46W 5M
May 17, 2021 - 05:53 PM EDT / 2021.05.17 2153 UTC
Wind: from the E (090 degrees) at 17 MPH (15 KT) gusting to 23 MPH (20 KT):0
Visibility: 10 mile(s):0
Sky conditions: mostly clear
Temperature: 82.0 F (27.8 C)
Dew Point: 68.0 F (20.0 C)
Relative Humidity: 62%
Pressure (altimeter): 30.03 in. Hg (1016 hPa)
ob: KEYW 172153Z 09015G20KT 10SM FEW030 28/20 A3003 RMK AO2 SLP169 T02780200
cycle: 22

Station Type Date Time Source
KEYW TAF 2021/05/17 18:27 UTC NOAA

TAF KEYW 171725Z 1718/1818 09015G20KT P6SM SCT035
FM180800 08012KT P6SM SCT028
FM181400 09014G20KT P6SM SCT030

Example: see airport list